Georgetown, New York
Current Conditions -  °F | °C
As of 1:15 AM on Thursday 29 Jan 2015 (Local Time) from KN03 Reporting Station
Clear Clear  
Wind Chill: -4°   Ceiling: Unl
Heat Index: -4°   Visibility: 10mi
Dew Point: -8°   Wind: 0mph
Humidity: 85%   Direction: NA
Pressure: 30.28"   Gusts: NA
Location:  42.76°N, 75.73°W
Report Text: KN03 290615Z AUTO 00000KT 10SM CLR M20/M22 A3028 RMK AO2
Loading
Personal Weather Stations






























Interactive Weather Map New forecast layout! Learn more

10-Day Weather Forecast

Advertisements
Track Severe Weather on mobile